Saint Cloud, Minnesota
Current Conditions -  °F | °C
As of 5:53 AM on Wednesday 28 Jan 2015 (Local Time) from KSTC Reporting Station
Haze Haze  
Wind Chill: 19°   Ceiling: 600
Heat Index: 30°   Visibility: 6mi
Dew Point: 28°   Wind: 16mph
Humidity: 92%   Direction: 150°SSE
Pressure: 29.95"   Gusts: NA
Location:  45.55°N, 94.06°W
Report Text: KSTC 281153Z AUTO 15014KT 6SM BR OVC006 M01/M02 A2995 RMK AO2 SLP164 T10111022 11006 21011 56020
Loading
Personal Weather Stations






























Interactive Weather Map New forecast layout! Learn more

10-Day Weather Forecast

Advertisements
Track Severe Weather on mobile